Time;durP1;ratioP1;P1;durP2;ratioP2;P2;SDS_P1;SDS_P2;PMS_P1;PMS_P2;Temp;Humidity;BMP_temperature;BMP_pressure;BME280_temperature;BME280_humidity;BME280_pressure;Samples;Min_cycle;Max_cycle;Signal;HPM_P1;HPM_P2
2022/09/06 05:00:34;;;;;;;5.43;5.03;;;19.90;97.20;;;;;;1762814;28;20606;-69
2022/09/06 05:01:25;;;;;;;6.65;5.22;;;19.90;97.20;;;;;;1758232;28;20679;-68
2022/09/06 05:02:16;;;;;;;5.80;5.20;;;19.90;97.20;;;;;;1755803;28;20639;-69
2022/09/06 05:03:08;;;;;;;6.30;5.45;;;19.90;97.20;;;;;;1755691;28;20213;-69
2022/09/06 05:04:00;;;;;;;6.45;4.60;;;19.90;97.20;;;;;;1755640;28;20233;-69
2022/09/06 05:04:52;;;;;;;5.82;5.22;;;19.90;97.20;;;;;;1755644;28;20202;-68
2022/09/06 05:05:43;;;;;;;5.40;4.90;;;19.90;97.20;;;;;;1755633;28;20197;-69
2022/09/06 05:06:34;;;;;;;5.55;5.00;;;19.90;97.20;;;;;;1755664;28;20213;-69
2022/09/06 05:07:26;;;;;;;5.10;4.60;;;19.90;97.20;;;;;;1755375;28;20212;-68
2022/09/06 05:08:17;;;;;;;5.55;5.15;;;19.90;97.20;;;;;;1755727;28;20668;-69
2022/09/06 05:09:09;;;;;;;5.88;5.28;;;19.90;97.20;;;;;;1755556;28;20260;-68
2022/09/06 05:10:00;;;;;;;5.95;5.03;;;19.90;97.20;;;;;;1751916;28;20239;-68
2022/09/06 05:10:52;;;;;;;5.40;5.00;;;19.90;97.20;;;;;;1751486;28;20294;-69
2022/09/06 05:11:43;;;;;;;5.70;5.30;;;19.90;97.20;;;;;;1752199;28;20483;-69
2022/09/06 05:12:34;;;;;;;5.13;4.67;;;19.90;97.20;;;;;;1755400;28;20204;-69
2022/09/06 05:13:25;;;;;;;5.60;5.18;;;19.90;97.20;;;;;;1755415;28;20206;-69
2022/09/06 05:14:17;;;;;;;5.50;4.83;;;19.90;97.20;;;;;;1755552;28;20277;-69
2022/09/06 05:15:08;;;;;;;5.68;5.18;;;19.90;97.20;;;;;;1755441;28;20207;-68
2022/09/06 05:16:03;;;;;;;5.95;5.40;;;19.90;97.20;;;;;;1754949;28;20267;-69
2022/09/06 05:16:54;;;;;;;5.60;5.05;;;19.90;97.20;;;;;;1748336;28;20233;-69
2022/09/06 05:17:45;;;;;;;5.50;5.00;;;19.90;97.20;;;;;;1747976;28;20198;-69
2022/09/06 05:18:36;;;;;;;5.72;5.22;;;19.90;97.20;;;;;;1748359;28;20203;-69
2022/09/06 05:19:28;;;;;;;5.50;5.10;;;19.90;97.20;;;;;;1748587;28;20202;-69
2022/09/06 05:20:19;;;;;;;5.75;5.20;;;19.90;97.20;;;;;;1748478;28;20452;-68
2022/09/06 05:21:11;;;;;;;5.17;4.73;;;19.90;97.20;;;;;;1748463;28;20281;-69
2022/09/06 05:22:01;;;;;;;6.60;5.47;;;19.90;97.20;;;;;;1748484;28;20195;-69
2022/09/06 05:22:54;;;;;;;6.93;5.60;;;19.90;97.20;;;;;;1748487;28;20290;-69
2022/09/06 05:23:44;;;;;;;5.72;5.25;;;19.90;97.20;;;;;;1748321;28;20255;-69
2022/09/06 05:24:36;;;;;;;5.60;5.10;;;19.90;97.20;;;;;;1748547;28;20210;-69
2022/09/06 05:25:27;;;;;;;5.78;5.28;;;19.90;97.20;;;;;;1748438;28;20207;-68
2022/09/06 05:26:18;;;;;;;5.57;5.07;;;19.90;97.20;;;;;;1748304;28;20289;-68
2022/09/06 05:27:11;;;;;;;5.70;5.20;;;19.90;97.20;;;;;;1747627;28;20202;-68
2022/09/06 05:28:03;;;;;;;5.68;5.10;;;19.90;97.20;;;;;;1748363;28;20190;-69
2022/09/06 05:28:53;;;;;;;6.93;6.22;;;19.90;97.20;;;;;;1748317;28;20209;-69
2022/09/06 05:29:45;;;;;;;7.10;5.33;;;19.90;97.20;;;;;;1748311;28;20281;-69
2022/09/06 05:30:36;;;;;;;6.03;5.45;;;19.90;97.20;;;;;;1748062;28;20203;-69
2022/09/06 05:31:31;;;;;;;5.67;5.17;;;19.90;97.20;;;;;;1752499;28;20335;-69
2022/09/06 05:32:22;;;;;;;5.60;5.20;;;19.90;97.20;;;;;;1755491;28;20210;-69
2022/09/06 05:33:19;;;;;;;5.63;4.90;;;19.90;97.20;;;;;;1755424;28;20204;-69
2022/09/06 05:34:12;;;;;;;6.15;5.60;;;19.90;97.20;;;;;;1753622;28;20525;-69
2022/09/06 05:35:04;;;;;;;5.53;5.03;;;19.90;97.20;;;;;;1755271;28;20197;-69
2022/09/06 05:35:55;;;;;;;7.90;5.30;;;20.00;97.20;;;;;;1755299;28;20213;-69
2022/09/06 05:36:46;;;;;;;6.07;5.67;;;20.00;97.20;;;;;;1755096;28;20308;-69
2022/09/06 05:37:37;;;;;;;6.00;5.50;;;20.00;97.20;;;;;;1754701;28;20206;-69
2022/09/06 05:38:29;;;;;;;6.37;5.77;;;20.00;97.20;;;;;;1755326;28;20284;-69
2022/09/06 05:39:20;;;;;;;6.70;5.45;;;20.00;97.20;;;;;;1755290;28;20205;-69
2022/09/06 05:40:12;;;;;;;5.72;5.22;;;20.00;97.20;;;;;;1755428;28;20217;-69
2022/09/06 05:41:03;;;;;;;6.68;5.68;;;20.00;97.20;;;;;;1755283;28;20578;-69
2022/09/06 05:41:55;;;;;;;5.70;5.30;;;20.00;97.20;;;;;;1755350;28;20641;-68
2022/09/06 05:42:46;;;;;;;6.35;5.72;;;20.00;97.20;;;;;;1755358;28;20459;-68
2022/09/06 05:43:37;;;;;;;6.23;5.63;;;20.00;97.20;;;;;;1755310;28;20208;-68
2022/09/06 05:44:28;;;;;;;6.40;5.78;;;20.00;97.20;;;;;;1750044;28;20546;-71
2022/09/06 05:45:20;;;;;;;5.97;5.13;;;20.00;97.20;;;;;;1751237;28;20231;-69
2022/09/06 05:46:11;;;;;;;6.38;5.88;;;20.00;97.20;;;;;;1753596;28;20199;-69
2022/09/06 05:47:04;;;;;;;6.00;5.38;;;20.00;97.20;;;;;;1747630;28;20844;-68
2022/09/06 05:47:55;;;;;;;6.00;5.45;;;20.00;97.20;;;;;;1747125;28;20219;-70
2022/09/06 05:48:53;;;;;;;5.67;5.20;;;20.00;97.20;;;;;;1747604;28;20215;-70
2022/09/06 05:49:45;;;;;;;5.65;5.15;;;20.00;97.20;;;;;;1747851;28;20210;-70
2022/09/06 05:50:36;;;;;;;7.82;5.95;;;20.00;97.20;;;;;;1747598;28;20202;-70
2022/09/06 05:51:27;;;;;;;6.40;5.65;;;20.00;97.20;;;;;;1747678;28;20233;-70
2022/09/06 05:52:19;;;;;;;6.40;5.90;;;20.00;97.20;;;;;;1748118;28;20256;-70
2022/09/06 05:53:09;;;;;;;6.20;5.70;;;20.10;97.20;;;;;;1748350;28;20217;-70
2022/09/06 05:54:01;;;;;;;6.53;5.93;;;20.10;97.20;;;;;;1748250;28;20190;-70
2022/09/06 05:54:52;;;;;;;5.57;5.18;;;20.10;97.20;;;;;;1748413;28;20677;-70
2022/09/06 05:55:44;;;;;;;6.27;5.83;;;20.10;97.20;;;;;;1748235;28;20635;-70
2022/09/06 05:56:35;;;;;;;5.85;5.35;;;20.10;97.20;;;;;;1748160;28;20206;-70
2022/09/06 05:57:27;;;;;;;6.10;5.60;;;20.10;97.20;;;;;;1747650;28;20237;-70
2022/09/06 05:58:18;;;;;;;6.32;5.72;;;20.10;97.20;;;;;;1752264;28;20210;-69
2022/09/06 05:59:09;;;;;;;6.43;5.87;;;20.10;97.20;;;;;;1755212;28;20288;-70
2022/09/06 06:00:00;;;;;;;5.90;5.40;;;20.10;97.20;;;;;;1755214;28;20694;-71
2022/09/06 06:00:52;;;;;;;6.32;5.82;;;20.20;97.20;;;;;;1755234;28;20233;-70
2022/09/06 06:01:48;;;;;;;6.00;5.50;;;20.20;97.20;;;;;;1755186;28;20206;-70
2022/09/06 06:02:41;;;;;;;6.80;6.30;;;20.20;97.20;;;;;;1755194;28;20285;-71
2022/09/06 06:03:32;;;;;;;5.78;5.28;;;20.20;97.20;;;;;;1755297;28;20201;-70
2022/09/06 06:04:23;;;;;;;6.45;5.95;;;20.20;97.20;;;;;;1755381;28;20232;-70
2022/09/06 06:05:14;;;;;;;8.15;5.88;;;20.20;97.20;;;;;;1755224;28;20209;-69
2022/09/06 06:06:06;;;;;;;6.40;5.80;;;20.20;97.20;;;;;;1755196;28;20280;-69
2022/09/06 06:06:57;;;;;;;6.80;6.30;;;20.20;97.20;;;;;;1754796;28;20463;-69
2022/09/06 06:07:49;;;;;;;6.70;6.10;;;20.20;97.20;;;;;;1754685;28;20288;-69
2022/09/06 06:08:40;;;;;;;6.82;6.25;;;20.20;97.20;;;;;;1755024;28;20206;-69
2022/09/06 06:09:31;;;;;;;7.07;5.90;;;20.20;97.20;;;;;;1755215;28;20276;-68
2022/09/06 06:10:22;;;;;;;6.93;6.00;;;20.30;97.20;;;;;;1755110;28;20206;-69
2022/09/06 06:11:14;;;;;;;7.30;5.80;;;20.30;97.20;;;;;;1755177;28;20239;-69
2022/09/06 06:12:05;;;;;;;6.38;5.70;;;20.30;97.20;;;;;;1751531;28;20218;-69
2022/09/06 06:12:57;;;;;;;6.30;5.43;;;20.30;97.20;;;;;;1748098;28;20198;-69
2022/09/06 06:13:48;;;;;;;6.47;5.68;;;20.30;97.20;;;;;;1748260;28;20199;-69
2022/09/06 06:14:40;;;;;;;5.93;5.43;;;20.30;97.20;;;;;;1748164;28;20281;-68
2022/09/06 06:15:31;;;;;;;6.30;5.80;;;20.30;97.20;;;;;;1748267;28;20206;-69
2022/09/06 06:16:24;;;;;;;6.18;5.68;;;20.30;97.20;;;;;;1747919;28;20673;-69
2022/09/06 06:17:15;;;;;;;6.55;5.95;;;20.30;97.20;;;;;;1747445;28;20687;-69
2022/09/06 06:18:08;;;;;;;6.00;5.50;;;20.40;97.20;;;;;;1748108;28;20201;-69
2022/09/06 06:18:59;;;;;;;6.45;5.95;;;20.40;97.20;;;;;;1747982;28;20207;-69
2022/09/06 06:19:50;;;;;;;6.50;5.80;;;20.40;97.20;;;;;;1748153;28;20287;-68
2022/09/06 06:20:41;;;;;;;6.53;6.03;;;20.40;97.20;;;;;;1748160;28;20202;-69
2022/09/06 06:21:33;;;;;;;6.40;5.80;;;20.40;97.20;;;;;;1748165;28;20737;-69
2022/09/06 06:22:24;;;;;;;6.10;5.45;;;20.40;97.20;;;;;;1748138;28;20229;-69
2022/09/06 06:23:16;;;;;;;6.20;5.70;;;20.40;97.20;;;;;;1748115;28;20669;-68
2022/09/06 06:24:07;;;;;;;6.32;5.80;;;20.40;97.20;;;;;;1748056;28;20211;-69
2022/09/06 06:24:59;;;;;;;6.70;5.72;;;20.40;97.20;;;;;;1748066;28;20273;-69
2022/09/06 06:25:49;;;;;;;7.53;5.10;;;20.40;97.20;;;;;;1749895;28;20213;-69
2022/09/06 06:26:41;;;;;;;6.00;5.40;;;20.40;97.20;;;;;;1754796;28;20228;-69
2022/09/06 06:27:33;;;;;;;5.97;5.55;;;20.40;97.20;;;;;;1754642;28;20201;-69
2022/09/06 06:28:25;;;;;;;6.60;6.00;;;20.40;97.20;;;;;;1754881;28;20250;-69
2022/09/06 06:29:16;;;;;;;5.78;5.28;;;20.30;97.20;;;;;;1755123;28;20201;-69
2022/09/06 06:30:08;;;;;;;5.90;5.40;;;20.30;97.20;;;;;;1754567;28;20259;-69
2022/09/06 06:30:59;;;;;;;5.53;5.05;;;20.30;97.20;;;;;;1748076;28;20202;-69
2022/09/06 06:31:51;;;;;;;6.30;5.73;;;20.30;97.20;;;;;;1747966;28;20275;-69
2022/09/06 06:32:41;;;;;;;5.95;5.45;;;20.30;97.20;;;;;;1748011;28;20202;-71
2022/09/06 06:33:35;;;;;;;7.67;5.57;;;20.30;97.20;;;;;;1748091;28;20285;-69
2022/09/06 06:34:25;;;;;;;5.82;5.25;;;20.30;97.20;;;;;;1748016;28;20588;-69
2022/09/06 06:35:17;;;;;;;6.00;5.50;;;20.30;97.20;;;;;;1748122;28;20214;-69
2022/09/06 06:36:20;;;;;;;6.15;5.55;;;20.30;97.20;;;;;;1748067;28;20202;-69
2022/09/06 06:37:11;;;;;;;6.97;6.07;;;20.30;97.20;;;;;;1747269;28;20220;-69
2022/09/06 06:38:02;;;;;;;7.25;5.43;;;20.20;97.20;;;;;;1748016;28;20206;-69
2022/09/06 06:38:55;;;;;;;6.67;5.80;;;20.20;97.20;;;;;;1751523;28;20301;-69
2022/09/06 06:39:46;;;;;;;6.47;5.72;;;20.30;97.20;;;;;;1754966;28;20202;-69
2022/09/06 06:40:38;;;;;;;5.63;5.13;;;20.30;97.20;;;;;;1754973;28;20198;-71
2022/09/06 06:41:32;;;;;;;9.18;5.70;;;20.30;97.20;;;;;;1754843;28;20206;-69
2022/09/06 06:42:22;;;;;;;5.95;5.45;;;20.30;97.20;;;;;;1754583;28;20201;-71
2022/09/06 06:43:14;;;;;;;5.83;5.33;;;20.30;97.20;;;;;;1755044;28;20272;-71
2022/09/06 06:44:05;;;;;;;6.97;5.57;;;20.40;97.20;;;;;;1754915;28;20228;-71
2022/09/06 06:44:57;;;;;;;6.23;5.73;;;20.40;97.20;;;;;;1755042;28;20209;-71
2022/09/06 06:45:48;;;;;;;6.05;5.45;;;20.50;97.20;;;;;;1754942;28;20451;-70
2022/09/06 06:46:40;;;;;;;6.05;5.45;;;20.50;97.20;;;;;;1754663;28;20304;-71
2022/09/06 06:47:31;;;;;;;5.60;5.20;;;20.60;97.20;;;;;;1754448;28;20202;-71
2022/09/06 06:48:23;;;;;;;6.15;5.55;;;20.60;97.20;;;;;;1754746;28;20210;-70
2022/09/06 06:49:15;;;;;;;5.65;5.15;;;20.70;97.20;;;;;;1755007;28;20206;-69
2022/09/06 06:50:08;;;;;;;6.03;5.53;;;20.70;97.20;;;;;;1754848;28;20194;-69
2022/09/06 06:50:58;;;;;;;8.05;6.10;;;20.70;97.20;;;;;;1754911;28;20208;-69
2022/09/06 06:51:50;;;;;;;5.77;5.27;;;20.80;97.20;;;;;;1754960;28;20292;-69
2022/09/06 06:52:41;;;;;;;5.40;4.90;;;20.80;97.20;;;;;;1751633;28;20227;-69
2022/09/06 06:53:34;;;;;;;5.47;5.07;;;20.80;97.20;;;;;;1748114;28;20190;-69
2022/09/06 06:54:24;;;;;;;6.25;5.75;;;20.90;97.20;;;;;;1747991;28;20957;-69
2022/09/06 06:55:16;;;;;;;5.90;5.30;;;20.90;97.20;;;;;;1747996;28;20814;-69
2022/09/06 06:56:16;;;;;;;4.93;4.50;;;21.00;97.20;;;;;;1747915;28;20198;-69
2022/09/06 06:57:08;;;;;;;4.55;4.25;;;21.00;97.20;;;;;;1747732;28;20194;-69
2022/09/06 06:57:59;;;;;;;4.80;4.40;;;21.00;97.20;;;;;;1747635;28;20678;-69
2022/09/06 06:58:52;;;;;;;5.25;4.00;;;21.10;97.20;;;;;;1747864;28;20201;-69
2022/09/06 06:59:43;;;;;;;4.88;4.40;;;21.10;97.20;;;;;;1747853;28;20213;-69
2022/09/06 07:00:34;;;;;;;4.50;4.10;;;21.10;97.20;;;;;;1748062;28;20209;-69
2022/09/06 07:01:28;;;;;;;4.57;4.18;;;21.10;97.20;;;;;;1747569;28;20206;-69
2022/09/06 07:02:19;;;;;;;9.27;4.35;;;21.10;97.20;;;;;;1749447;28;20210;-69
2022/09/06 07:03:12;;;;;;;4.33;3.93;;;21.20;97.20;;;;;;1754996;28;20190;-69
2022/09/06 07:04:04;;;;;;;4.70;4.30;;;21.20;97.20;;;;;;1754626;28;20198;-69
2022/09/06 07:04:57;;;;;;;4.50;4.10;;;21.20;97.20;;;;;;1755042;28;20247;-69
2022/09/06 07:05:47;;;;;;;4.22;3.83;;;21.20;97.20;;;;;;1754855;28;20197;-69
2022/09/06 07:06:50;;;;;;;7.57;4.23;;;21.20;97.20;;;;;;1755485;28;20292;-68
2022/09/06 07:07:41;;;;;;;5.00;4.60;;;21.30;97.20;;;;;;1755006;28;20189;-69
2022/09/06 07:08:33;;;;;;;4.27;3.93;;;21.30;97.20;;;;;;1758373;28;20220;-69
2022/09/06 07:09:26;;;;;;;4.70;4.40;;;21.30;97.20;;;;;;1756427;28;20451;-69
2022/09/06 07:10:16;;;;;;;5.55;3.90;;;21.30;97.20;;;;;;1754780;28;20202;-69
2022/09/06 07:11:10;;;;;;;4.40;4.00;;;21.40;97.20;;;;;;1754835;28;20189;-68
2022/09/06 07:12:01;;;;;;;5.65;4.20;;;21.40;97.20;;;;;;1754768;28;20197;-69
2022/09/06 07:12:53;;;;;;;5.90;4.30;;;21.40;97.20;;;;;;1754848;28;20309;-69
2022/09/06 07:13:44;;;;;;;4.10;3.80;;;21.40;97.20;;;;;;1754839;28;20206;-68
2022/09/06 07:14:36;;;;;;;7.73;4.43;;;21.50;97.20;;;;;;1754959;28;20193;-70
2022/09/06 07:15:27;;;;;;;7.00;4.60;;;21.50;97.20;;;;;;1754586;28;20443;-71
2022/09/06 07:16:21;;;;;;;4.63;4.27;;;21.50;97.20;;;;;;1754543;28;20202;-71
2022/09/06 07:17:12;;;;;;;3.97;3.50;;;21.50;97.20;;;;;;1753711;28;20194;-71
2022/09/06 07:18:03;;;;;;;4.03;3.63;;;21.50;97.20;;;;;;1754252;28;20200;-69
2022/09/06 07:18:54;;;;;;;3.90;3.60;;;21.50;97.20;;;;;;1754237;28;20202;-69
2022/09/06 07:19:46;;;;;;;4.30;3.40;;;21.50;97.20;;;;;;1754445;28;20295;-69
2022/09/06 07:20:38;;;;;;;6.65;4.30;;;21.50;97.20;;;;;;1753595;28;20205;-69
2022/09/06 07:21:30;;;;;;;5.43;4.22;;;21.50;97.20;;;;;;1754317;28;20209;-69
2022/09/06 07:22:21;;;;;;;4.60;3.55;;;21.50;97.20;;;;;;1754363;28;20693;-69
2022/09/06 07:23:12;;;;;;;3.97;3.63;;;21.50;97.20;;;;;;1754891;28;20608;-69
2022/09/06 07:24:07;;;;;;;3.95;3.55;;;21.60;97.20;;;;;;1754271;28;20205;-68
2022/09/06 07:24:57;;;;;;;4.15;3.85;;;21.60;97.20;;;;;;1754311;28;20259;-69
2022/09/06 07:25:49;;;;;;;4.53;3.43;;;21.60;97.20;;;;;;1754393;28;20194;-69
2022/09/06 07:26:40;;;;;;;5.20;4.15;;;21.60;97.20;;;;;;1754033;28;20226;-69
2022/09/06 07:27:32;;;;;;;4.43;3.77;;;21.60;97.20;;;;;;1751308;28;20189;-69
2022/09/06 07:28:23;;;;;;;4.57;4.18;;;21.60;97.20;;;;;;1754152;28;20886;-69
2022/09/06 07:29:14;;;;;;;5.80;4.63;;;21.60;97.20;;;;;;1754532;28;20280;-69
2022/09/06 07:30:06;;;;;;;4.47;4.07;;;21.60;97.20;;;;;;1754312;28;20194;-68
2022/09/06 07:30:59;;;;;;;4.07;3.60;;;21.60;97.20;;;;;;1754273;28;20193;-69
2022/09/06 07:31:51;;;;;;;4.15;3.75;;;21.60;97.20;;;;;;1754232;28;20201;-69
2022/09/06 07:32:43;;;;;;;4.82;4.35;;;21.60;97.20;;;;;;1754164;28;20222;-69
2022/09/06 07:33:34;;;;;;;4.43;4.13;;;21.70;97.20;;;;;;1754322;28;20201;-69
2022/09/06 07:34:26;;;;;;;4.95;4.50;;;21.70;97.20;;;;;;1753921;28;20286;-69
2022/09/06 07:35:19;;;;;;;4.80;4.35;;;21.70;97.20;;;;;;1754394;28;20235;-69
2022/09/06 07:36:12;;;;;;;6.57;4.43;;;21.70;97.20;;;;;;1753626;28;20273;-69
2022/09/06 07:37:03;;;;;;;6.93;4.55;;;21.70;97.20;;;;;;1753948;28;20594;-69
2022/09/06 07:37:56;;;;;;;5.47;4.43;;;21.80;97.20;;;;;;1753830;28;20540;-69
2022/09/06 07:38:48;;;;;;;4.28;3.85;;;21.80;97.20;;;;;;1753743;28;20197;-69
2022/09/06 07:39:40;;;;;;;5.20;4.03;;;21.80;97.20;;;;;;1754389;28;20204;-69
2022/09/06 07:40:31;;;;;;;5.57;4.55;;;21.80;97.20;;;;;;1754239;28;20238;-69
2022/09/06 07:41:22;;;;;;;4.80;4.33;;;21.90;97.20;;;;;;1754225;28;20194;-69
2022/09/06 07:42:15;;;;;;;4.18;3.80;;;21.90;97.20;;;;;;1754269;28;20205;-69
2022/09/06 07:43:06;;;;;;;10.18;4.60;;;21.90;97.20;;;;;;1754290;28;20190;-69
2022/09/06 07:43:57;;;;;;;4.93;4.45;;;22.00;97.20;;;;;;1754587;28;20201;-69
2022/09/06 07:44:49;;;;;;;4.40;4.00;;;22.00;97.20;;;;;;1754671;28;20200;-69
2022/09/06 07:45:40;;;;;;;5.05;4.00;;;22.00;97.20;;;;;;1754614;28;20227;-69
2022/09/06 07:46:32;;;;;;;5.00;4.35;;;22.00;97.20;;;;;;1751887;28;20641;-69
2022/09/06 07:47:23;;;;;;;4.82;4.20;;;22.10;97.20;;;;;;1753937;28;20197;-69
2022/09/06 07:48:14;;;;;;;5.17;4.67;;;22.10;97.20;;;;;;1753885;28;20205;-68
2022/09/06 07:49:06;;;;;;;4.57;4.28;;;22.10;97.20;;;;;;1754502;28;20209;-69
2022/09/06 07:49:58;;;;;;;6.95;4.55;;;22.10;97.20;;;;;;1754616;28;20688;-69
2022/09/06 07:50:48;;;;;;;5.07;4.65;;;22.20;97.20;;;;;;1752672;28;20696;-69
2022/09/06 07:51:42;;;;;;;8.40;4.00;;;22.20;97.20;;;;;;1754589;28;20231;-69
2022/09/06 07:52:33;;;;;;;4.63;4.22;;;22.20;97.20;;;;;;1752256;28;20563;-69
2022/09/06 07:53:25;;;;;;;5.27;4.10;;;22.30;97.20;;;;;;1755196;28;20217;-69
2022/09/06 07:54:16;;;;;;;6.00;4.25;;;22.30;97.20;;;;;;1755914;28;20444;-68
2022/09/06 07:55:08;;;;;;;4.38;3.83;;;22.40;97.20;;;;;;1756041;28;20201;-69
2022/09/06 07:56:00;;;;;;;4.28;3.97;;;22.40;97.20;;;;;;1755902;28;20668;-69
2022/09/06 07:56:51;;;;;;;4.85;4.20;;;22.40;97.20;;;;;;1753036;28;20216;-69
2022/09/06 07:57:43;;;;;;;4.10;3.70;;;22.40;97.20;;;;;;1755436;28;20200;-69
2022/09/06 07:58:35;;;;;;;5.05;3.88;;;22.40;97.20;;;;;;1755907;28;20824;-68
2022/09/06 07:59:26;;;;;;;5.10;3.95;;;22.50;97.20;;;;;;1755985;28;20200;-68
2022/09/06 08:00:18;;;;;;;5.20;4.00;;;22.50;97.20;;;;;;1755886;28;20280;-69
2022/09/06 08:01:33;;;;;;;4.95;4.47;;;22.50;97.20;;;;;;1755903;28;20230;-69
2022/09/06 08:02:23;;;;;;;4.32;4.03;;;22.50;97.20;;;;;;1748678;28;20668;-69
2022/09/06 08:03:15;;;;;;;4.37;4.07;;;22.60;97.20;;;;;;1756039;28;20564;-68
2022/09/06 08:04:07;;;;;;;4.68;4.00;;;22.60;97.20;;;;;;1755900;28;20211;-69
2022/09/06 08:04:59;;;;;;;4.90;3.80;;;22.60;97.20;;;;;;1755965;28;20198;-69
2022/09/06 08:05:50;;;;;;;4.50;4.18;;;22.70;97.20;;;;;;1755870;28;20194;-68
2022/09/06 08:06:45;;;;;;;6.67;4.00;;;22.70;97.20;;;;;;1755594;28;20217;-69
2022/09/06 08:07:36;;;;;;;7.30;4.35;;;22.80;97.20;;;;;;1755317;28;20682;-69
2022/09/06 08:08:27;;;;;;;5.20;4.57;;;22.80;97.20;;;;;;1755737;28;20193;-69
2022/09/06 08:09:18;;;;;;;4.30;3.90;;;22.80;97.20;;;;;;1755827;28;20644;-69
2022/09/06 08:10:10;;;;;;;5.47;4.60;;;22.90;97.20;;;;;;1755885;28;20263;-69
2022/09/06 08:11:01;;;;;;;5.68;3.90;;;22.90;97.20;;;;;;1755814;28;20676;-69
2022/09/06 08:11:53;;;;;;;4.83;3.60;;;23.00;97.20;;;;;;1756053;28;20772;-69
2022/09/06 08:12:44;;;;;;;4.60;4.18;;;23.00;97.20;;;;;;1755746;28;20454;-69
2022/09/06 08:13:37;;;;;;;4.53;4.13;;;23.00;97.20;;;;;;1755935;28;20205;-69
2022/09/06 08:14:28;;;;;;;4.22;3.92;;;23.00;97.20;;;;;;1752885;28;20209;-69
2022/09/06 08:15:20;;;;;;;4.27;3.97;;;23.10;97.20;;;;;;1753716;28;20236;-69
2022/09/06 08:16:11;;;;;;;4.53;4.13;;;23.10;97.20;;;;;;1755640;28;20533;-69
2022/09/06 08:17:03;;;;;;;4.57;4.07;;;23.10;97.20;;;;;;1754880;28;20304;-70
2022/09/06 08:17:54;;;;;;;4.90;3.95;;;23.10;97.20;;;;;;1755110;28;20205;-69
2022/09/06 08:18:50;;;;;;;4.63;3.67;;;23.20;97.20;;;;;;1755472;28;20186;-69
2022/09/06 08:19:41;;;;;;;5.25;4.78;;;23.20;97.20;;;;;;1755536;28;20201;-69
2022/09/06 08:20:33;;;;;;;4.60;4.20;;;23.20;97.20;;;;;;1755824;28;20193;-69
2022/09/06 08:21:26;;;;;;;4.22;3.72;;;23.20;97.20;;;;;;1755623;28;20205;-69
2022/09/06 08:22:19;;;;;;;4.40;4.00;;;23.20;97.20;;;;;;1755830;28;20194;-69
2022/09/06 08:23:09;;;;;;;5.03;4.57;;;23.20;97.20;;;;;;1755924;28;20194;-69
2022/09/06 08:24:04;;;;;;;4.40;4.00;;;23.20;97.20;;;;;;1755787;28;20225;-69
2022/09/06 08:24:54;;;;;;;6.40;4.00;;;23.20;97.20;;;;;;1755925;28;20874;-69
2022/09/06 08:25:56;;;;;;;6.07;4.13;;;23.20;97.20;;;;;;1755860;28;20850;-69
2022/09/06 08:26:47;;;;;;;4.85;4.25;;;23.30;97.20;;;;;;1755627;28;20278;-69
2022/09/06 08:27:39;;;;;;;4.30;3.90;;;23.30;97.20;;;;;;1755311;28;20209;-69
2022/09/06 08:28:30;;;;;;;5.90;3.85;;;23.30;97.20;;;;;;1755807;28;20209;-70
2022/09/06 08:29:21;;;;;;;7.30;4.23;;;23.30;97.20;;;;;;1754890;28;20277;-69
2022/09/06 08:30:13;;;;;;;4.55;3.80;;;23.40;97.20;;;;;;1755866;28;20570;-69
2022/09/06 08:31:06;;;;;;;4.10;3.80;;;23.40;97.20;;;;;;1755779;28;20190;-69
2022/09/06 08:31:58;;;;;;;3.90;3.60;;;23.50;97.20;;;;;;1755816;28;20210;-69
2022/09/06 08:32:50;;;;;;;4.38;4.00;;;23.50;97.20;;;;;;1755675;28;20202;-69
2022/09/06 08:33:43;;;;;;;9.98;4.25;;;23.50;97.20;;;;;;1755809;28;20237;-69
2022/09/06 08:34:34;;;;;;;4.45;3.92;;;23.50;97.20;;;;;;1755721;28;20206;-69
2022/09/06 08:35:25;;;;;;;5.18;4.38;;;23.50;97.20;;;;;;1755751;28;20206;-69
2022/09/06 08:36:17;;;;;;;4.40;3.80;;;23.60;97.20;;;;;;1755844;28;20190;-69
2022/09/06 08:37:08;;;;;;;4.10;3.80;;;23.60;97.20;;;;;;1755542;28;20210;-69
2022/09/06 08:38:01;;;;;;;6.83;3.63;;;23.60;97.20;;;;;;1755480;28;20281;-69
2022/09/06 08:38:52;;;;;;;5.10;4.28;;;23.60;97.20;;;;;;1755656;28;20436;-70
2022/09/06 08:39:44;;;;;;;6.05;4.03;;;23.70;97.20;;;;;;1755720;28;20655;-69
2022/09/06 08:40:37;;;;;;;4.72;4.30;;;23.70;97.20;;;;;;1755750;28;20575;-69
2022/09/06 08:41:33;;;;;;;4.70;4.30;;;23.70;97.20;;;;;;1755796;28;20201;-69
2022/09/06 08:42:24;;;;;;;4.47;3.90;;;23.70;97.20;;;;;;1755810;28;20206;-69
2022/09/06 08:43:19;;;;;;;4.20;3.80;;;23.80;97.20;;;;;;1755071;28;20265;-70
2022/09/06 08:44:15;;;;;;;4.57;4.05;;;23.80;97.20;;;;;;1755720;28;20496;-70
2022/09/06 08:45:11;;;;;;;6.15;4.70;;;23.80;97.20;;;;;;1755678;28;20679;-69
2022/09/06 08:46:04;;;;;;;7.03;4.60;;;23.80;97.20;;;;;;1755739;28;20274;-69
2022/09/06 08:46:58;;;;;;;8.93;4.75;;;23.90;97.20;;;;;;1755424;28;20297;-69
2022/09/06 08:47:51;;;;;;;5.95;4.25;;;23.90;97.20;;;;;;1755209;28;20611;-70
2022/09/06 08:48:42;;;;;;;6.38;4.45;;;23.90;97.20;;;;;;1755554;28;20569;-69
2022/09/06 08:49:37;;;;;;;4.03;3.63;;;24.00;97.20;;;;;;1755779;28;20632;-69
2022/09/06 08:50:28;;;;;;;6.53;4.47;;;24.00;97.20;;;;;;1755638;28;20480;-70
2022/09/06 08:51:46;;;;;;;5.00;3.97;;;24.10;97.20;;;;;;1755391;28;20196;-70
2022/09/06 08:52:49;;;;;;;6.72;4.10;;;24.10;97.20;;;;;;1755749;28;20206;-70
2022/09/06 08:53:46;;;;;;;4.50;4.10;;;24.20;97.20;;;;;;1755581;28;20652;-70
2022/09/06 08:54:43;;;;;;;4.97;4.00;;;24.20;97.20;;;;;;1755686;28;20284;-70
2022/09/06 08:55:39;;;;;;;4.80;4.40;;;24.30;97.20;;;;;;1755648;28;20208;-70
2022/09/06 08:56:36;;;;;;;4.40;3.97;;;24.30;97.20;;;;;;1755651;28;20555;-70
2022/09/06 08:57:40;;;;;;;5.03;4.50;;;24.40;97.20;;;;;;1755090;28;20205;-70
2022/09/06 08:58:59;;;;;;;5.88;4.18;;;24.40;97.20;;;;;;1755683;28;20198;-70
2022/09/06 08:59:56;;;;;;;4.45;4.00;;;24.50;97.20;;;;;;1748529;28;20211;-69
2022/09/06 09:00:51;;;;;;;4.57;4.18;;;24.50;97.20;;;;;;1748789;28;20209;-69
2022/09/06 09:01:58;;;;;;;8.10;4.05;;;24.60;97.20;;;;;;1748621;28;20198;-69
2022/09/06 09:02:54;;;;;;;4.75;4.32;;;24.60;97.20;;;;;;1748831;28;20198;-70
2022/09/06 09:03:46;;;;;;;6.13;4.00;;;24.70;97.20;;;;;;1748741;28;20207;-70
2022/09/06 09:04:42;;;;;;;4.70;3.95;;;24.70;97.20;;;;;;1748450;28;20203;-70
2022/09/06 09:05:36;;;;;;;5.20;4.30;;;24.70;97.20;;;;;;1748320;28;20202;-70
2022/09/06 09:06:28;;;;;;;4.90;4.30;;;24.80;97.20;;;;;;1748591;28;20217;-69
2022/09/06 09:07:35;;;;;;;9.13;4.45;;;24.80;97.20;;;;;;1747929;28;20202;-70
2022/09/06 09:08:28;;;;;;;5.70;3.97;;;24.90;97.20;;;;;;1748486;28;20226;-70
2022/09/06 09:09:24;;;;;;;10.55;4.22;;;24.90;97.20;;;;;;1752616;28;20194;-70
2022/09/06 09:10:20;;;;;;;5.95;3.55;;;25.00;97.20;;;;;;1755598;28;20692;-70
2022/09/06 09:11:16;;;;;;;4.75;3.85;;;25.00;97.20;;;;;;1755675;28;20200;-70
2022/09/06 09:12:10;;;;;;;6.07;4.70;;;25.00;97.20;;;;;;1755605;28;20202;-70
2022/09/06 09:13:07;;;;;;;5.07;3.95;;;25.00;97.20;;;;;;1755508;28;20202;-70
2022/09/06 09:14:05;;;;;;;6.22;3.97;;;25.00;97.20;;;;;;1755586;28;20198;-70
2022/09/06 09:15:04;;;;;;;6.25;3.97;;;25.00;97.20;;;;;;1755560;28;20197;-70
2022/09/06 09:15:56;;;;;;;8.57;4.13;;;25.00;97.20;;;;;;1748404;28;20661;-69
2022/09/06 09:16:49;;;;;;;4.32;3.92;;;25.00;97.20;;;;;;1748336;28;20219;-70
2022/09/06 09:17:41;;;;;;;5.80;3.65;;;25.00;97.20;;;;;;1747981;28;20716;-69
2022/09/06 09:18:38;;;;;;;5.20;3.45;;;25.00;97.20;;;;;;1748423;28;20686;-69
2022/09/06 09:19:32;;;;;;;7.32;3.90;;;25.00;97.20;;;;;;1748518;28;20229;-70
2022/09/06 09:20:24;;;;;;;4.90;4.30;;;25.10;97.20;;;;;;1748424;28;20289;-70
2022/09/06 09:21:16;;;;;;;5.97;4.10;;;25.10;97.20;;;;;;1748597;28;20218;-69
2022/09/06 09:22:08;;;;;;;6.25;4.32;;;25.10;97.20;;;;;;1748459;28;20195;-70
2022/09/06 09:23:00;;;;;;;5.85;3.85;;;25.20;97.20;;;;;;1748493;28;20206;-70
2022/09/06 09:23:55;;;;;;;7.95;3.92;;;25.20;97.20;;;;;;1748600;28;20233;-70
2022/09/06 09:24:50;;;;;;;7.53;3.90;;;25.30;97.20;;;;;;1748506;28;20733;-70
2022/09/06 09:25:44;;;;;;;5.20;4.25;;;25.30;97.20;;;;;;1748533;28;20209;-70
2022/09/06 09:26:43;;;;;;;8.23;4.00;;;25.40;97.20;;;;;;1748364;28;20690;-70
2022/09/06 09:27:36;;;;;;;7.60;4.43;;;25.40;97.20;;;;;;1747940;28;20206;-70
2022/09/06 09:28:27;;;;;;;8.75;4.57;;;25.50;97.20;;;;;;1748392;28;20908;-69
2022/09/06 09:29:18;;;;;;;5.03;3.78;;;25.50;97.20;;;;;;1748470;28;20564;-70
2022/09/06 09:30:11;;;;;;;4.97;3.70;;;25.60;97.20;;;;;;1748477;28;20294;-70
2022/09/06 09:31:02;;;;;;;7.10;4.47;;;25.60;97.20;;;;;;1748501;28;20433;-70
2022/09/06 09:31:55;;;;;;;8.00;3.73;;;25.70;97.20;;;;;;1748227;28;20273;-70
2022/09/06 09:32:46;;;;;;;5.55;3.70;;;25.70;97.20;;;;;;1748386;28;20445;-70
2022/09/06 09:33:38;;;;;;;6.87;3.80;;;25.70;97.20;;;;;;1748294;28;20227;-70
2022/09/06 09:34:32;;;;;;;6.82;4.00;;;25.80;97.20;;;;;;1748387;28;20498;-70